createdAt,value
2023-03-22T00:00:45.516Z,16.23
2023-03-22T00:05:50.616Z,15.25
2023-03-22T00:10:55.637Z,27.25
2023-03-22T00:16:03.466Z,12.98
2023-03-22T00:21:09.375Z,25.95
2023-03-22T00:26:15.791Z,17.00
2023-03-22T00:31:23.489Z,24.20
2023-03-22T00:36:28.800Z,34.28
2023-03-22T00:41:33.875Z,22.75
2023-03-22T00:46:41.526Z,21.30
2023-03-22T00:51:46.860Z,16.95
2023-03-22T00:56:54.549Z,16.35
2023-03-22T01:02:04.448Z,14.68
2023-03-22T01:07:09.432Z,13.45
2023-03-22T01:12:15.318Z,11.38
2023-03-22T01:17:23.295Z,15.32
2023-03-22T01:22:28.424Z,12.13
2023-03-22T01:27:33.407Z,17.25
2023-03-22T01:32:41.890Z,13.38
2023-03-22T01:37:46.904Z,11.23
2023-03-22T01:42:51.980Z,22.40
2023-03-22T01:48:02.779Z,11.23
2023-03-22T01:53:09.270Z,11.15
2023-03-22T01:58:16.279Z,11.10
2023-03-22T02:03:28.836Z,17.55
2023-03-22T02:08:35.122Z,12.95
2023-03-22T02:13:58.768Z,11.73
2023-03-22T02:19:36.559Z,10.35
2023-03-22T02:25:01.822Z,13.77
2023-03-22T02:30:20.841Z,13.10
2023-03-22T02:35:37.182Z,11.70
2023-03-22T02:40:48.486Z,11.98
2023-03-22T02:45:57.733Z,11.90
2023-03-22T02:51:06.815Z,9.23
2023-03-22T02:56:16.432Z,9.60
2023-03-22T03:01:24.534Z,12.93
2023-03-22T03:06:32.155Z,12.80
2023-03-22T03:11:40.190Z,12.57
2023-03-22T03:16:45.334Z,12.73
2023-03-22T03:21:55.487Z,14.93
2023-03-22T03:27:06.059Z,12.48
2023-03-22T03:32:14.597Z,10.60
2023-03-22T03:37:22.978Z,11.27
2023-03-22T03:42:31.843Z,11.60
2023-03-22T03:47:38.019Z,10.60
2023-03-22T03:52:43.260Z,11.07
2023-03-22T03:57:51.058Z,11.13
2023-03-22T04:02:56.149Z,11.45
2023-03-22T04:08:01.273Z,11.65
2023-03-22T04:13:09.238Z,10.07
2023-03-22T04:18:14.332Z,13.52
2023-03-22T04:23:22.690Z,11.48
2023-03-22T04:28:30.322Z,13.20
2023-03-22T04:33:39.574Z,11.75
2023-03-22T04:38:44.734Z,10.48
2023-03-22T04:43:52.466Z,11.18
2023-03-22T04:48:57.552Z,12.50
2023-03-22T04:54:03.122Z,10.80
2023-03-22T04:59:11.114Z,13.95
2023-03-22T05:04:16.633Z,12.35
2023-03-22T05:09:23.462Z,13.88
2023-03-22T05:14:31.535Z,12.90
2023-03-22T05:19:36.686Z,11.93
2023-03-22T05:24:41.799Z,12.70
2023-03-22T05:29:49.962Z,12.40
2023-03-22T05:34:55.151Z,13.05
2023-03-22T05:40:00.066Z,12.32
2023-03-22T05:45:08.430Z,12.65
2023-03-22T05:50:16.894Z,20.25
2023-03-22T05:55:22.627Z,17.00
2023-03-22T06:00:32.216Z,13.57
2023-03-22T06:05:37.628Z,15.48
2023-03-22T06:10:42.890Z,13.77
2023-03-22T06:15:50.708Z,12.27
2023-03-22T06:20:55.751Z,12.68
2023-03-22T06:26:00.787Z,13.38
2023-03-22T06:31:12.958Z,11.68
2023-03-22T06:36:18.074Z,11.48
2023-03-22T06:41:23.104Z,18.33
2023-03-22T06:46:31.014Z,13.68
2023-03-22T06:51:36.580Z,11.43
2023-03-22T06:56:41.754Z,12.43
2023-03-22T07:01:49.372Z,13.60
2023-03-22T07:06:54.462Z,13.93
2023-03-22T07:11:59.487Z,13.20
2023-03-22T07:17:07.261Z,14.55
2023-03-22T07:22:12.426Z,12.73
2023-03-22T07:27:17.435Z,18.45
2023-03-22T07:32:25.181Z,14.43
2023-03-22T07:37:30.316Z,14.90
2023-03-22T07:42:35.338Z,16.48
2023-03-22T07:47:43.159Z,15.65
2023-03-22T07:52:48.685Z,12.57
2023-03-22T07:57:54.201Z,14.10
2023-03-22T08:03:02.146Z,13.73
2023-03-22T08:08:07.373Z,16.33
2023-03-22T08:13:12.345Z,14.27
2023-03-22T08:18:19.958Z,13.18
2023-03-22T08:23:38.482Z,13.35
2023-03-22T08:28:46.289Z,13.55
2023-03-22T08:33:53.876Z,16.02
2023-03-22T08:38:58.860Z,13.10
2023-03-22T08:44:04.001Z,12.40
2023-03-22T08:49:11.651Z,13.30
2023-03-22T08:54:16.750Z,11.98
2023-03-22T08:59:22.025Z,10.82
2023-03-22T09:04:29.930Z,11.93
2023-03-22T09:09:35.045Z,12.25
2023-03-22T09:14:40.076Z,11.90
2023-03-22T09:19:48.080Z,10.23
2023-03-22T09:24:53.049Z,10.57
2023-03-22T09:29:58.112Z,11.93
2023-03-22T09:35:06.546Z,11.65
2023-03-22T09:40:12.172Z,10.70
2023-03-22T09:45:20.135Z,12.63
2023-03-22T09:50:30.140Z,11.18
2023-03-22T09:55:40.291Z,12.23
2023-03-22T10:00:49.241Z,10.18
2023-03-22T10:06:01.133Z,9.93
2023-03-22T10:11:06.686Z,8.73
2023-03-22T10:16:15.679Z,8.95
2023-03-22T10:21:24.090Z,9.73
2023-03-22T10:26:32.247Z,8.93
2023-03-22T10:31:37.755Z,8.40
2023-03-22T10:36:45.957Z,9.43
2023-03-22T10:41:52.154Z,9.32
2023-03-22T10:46:57.648Z,12.55
2023-03-22T10:52:07.385Z,9.82
2023-03-22T10:57:12.389Z,8.68
2023-03-22T11:02:21.998Z,8.90
2023-03-22T11:07:38.024Z,10.15
2023-03-22T11:12:45.497Z,10.60
2023-03-22T11:17:50.781Z,11.48
2023-03-22T11:22:59.394Z,9.23
2023-03-22T11:28:11.812Z,9.45
2023-03-22T11:33:21.541Z,9.95
2023-03-22T11:38:37.840Z,11.25
2023-03-22T11:43:44.658Z,9.73
2023-03-22T11:48:51.436Z,10.82
2023-03-22T11:54:11.300Z,9.00
2023-03-22T11:59:18.389Z,8.85
2023-03-22T12:04:30.958Z,8.77
2023-03-22T12:09:42.914Z,7.13
2023-03-22T12:14:53.045Z,8.55
2023-03-22T12:20:07.097Z,8.05
2023-03-22T12:25:24.184Z,8.35
2023-03-22T12:30:30.648Z,8.23
2023-03-22T12:35:38.209Z,8.30
2023-03-22T12:40:45.902Z,7.75
2023-03-22T12:45:55.157Z,6.55
2023-03-22T12:51:03.364Z,6.82
2023-03-22T12:56:12.674Z,10.13
2023-03-22T13:01:25.855Z,7.50
2023-03-22T13:06:58.324Z,5.25
2023-03-22T13:12:34.517Z,6.63
2023-03-22T13:17:45.757Z,5.75
2023-03-22T13:23:15.588Z,6.50
2023-03-22T13:28:29.746Z,5.97
2023-03-22T13:33:36.437Z,6.72
2023-03-22T13:38:43.844Z,6.97
2023-03-22T13:43:53.632Z,6.22
2023-03-22T13:49:20.683Z,6.72
2023-03-22T13:54:29.865Z,7.68
2023-03-22T14:00:11.487Z,6.60
2023-03-22T14:05:21.043Z,7.03
2023-03-22T14:10:29.967Z,8.20
2023-03-22T14:15:40.782Z,5.70
2023-03-22T14:20:46.287Z,5.75
2023-03-22T14:56:43.386Z,6.05
2023-03-22T15:01:56.148Z,5.55
2023-03-22T15:07:03.589Z,4.35
2023-03-22T15:12:09.218Z,3.80
2023-03-22T15:17:18.351Z,4.60
2023-03-22T15:22:24.438Z,3.80
2023-03-22T15:27:32.848Z,4.63
2023-03-22T15:32:43.741Z,4.45
2023-03-22T15:37:54.718Z,4.75
2023-03-22T15:43:11.572Z,5.32
2023-03-22T15:48:25.939Z,5.80
2023-03-22T15:53:34.969Z,7.10
2023-03-22T15:58:40.110Z,9.37
2023-03-22T16:03:49.314Z,4.72
2023-03-22T16:08:54.613Z,11.90
2023-03-22T16:13:59.906Z,10.02
2023-03-22T16:19:08.471Z,48.75
2023-03-22T16:24:14.699Z,23.95
2023-03-22T16:29:19.903Z,9.73
2023-03-22T16:34:28.011Z,6.88
2023-03-22T16:39:33.068Z,13.13
2023-03-22T16:44:40.462Z,91.35
2023-03-22T16:49:50.287Z,70.90
2023-03-22T16:54:56.617Z,45.55
2023-03-22T17:00:02.898Z,40.45
2023-03-22T17:05:11.972Z,32.75
2023-03-22T17:10:19.376Z,67.00
2023-03-22T17:15:32.847Z,40.40
2023-03-22T17:20:41.391Z,25.00
2023-03-22T17:25:49.163Z,25.77
2023-03-22T17:30:54.792Z,20.00
2023-03-22T17:36:02.988Z,22.55
2023-03-22T17:41:09.295Z,11.40
2023-03-22T17:46:57.324Z,19.70
2023-03-22T17:51:42.259Z,16.92
2023-03-22T18:02:01.126Z,22.17
2023-03-22T18:07:11.532Z,9.63
2023-03-22T18:17:21.553Z,12.63
2023-03-22T18:22:29.674Z,11.93
2023-03-22T18:27:47.394Z,20.67
2023-03-22T18:33:05.726Z,50.78
2023-03-22T18:38:34.024Z,33.03
2023-03-22T18:43:43.174Z,27.75
2023-03-22T18:48:50.836Z,27.40
2023-03-22T18:53:58.709Z,23.10
2023-03-22T18:59:03.920Z,24.70
2023-03-22T19:04:09.830Z,35.95
2023-03-22T19:09:18.641Z,38.53
2023-03-22T19:15:05.710Z,43.97
2023-03-22T19:19:49.826Z,34.60
2023-03-22T19:24:59.094Z,31.25
2023-03-22T19:30:06.490Z,26.70
2023-03-22T19:35:14.332Z,19.02
2023-03-22T19:41:23.460Z,18.45
2023-03-22T19:45:48.366Z,21.58
2023-03-22T19:50:56.529Z,21.88
2023-03-22T19:56:04.922Z,56.97
2023-03-22T20:01:12.174Z,155.27
2023-03-22T20:06:17.484Z,36.63
2023-03-22T20:11:34.964Z,32.63
2023-03-22T20:17:03.208Z,46.20
2023-03-22T20:22:10.687Z,41.05
2023-03-22T20:27:18.621Z,60.53
2023-03-22T20:32:23.964Z,37.78
2023-03-22T20:37:29.224Z,52.17
2023-03-22T20:42:37.388Z,117.63
2023-03-22T20:47:42.480Z,113.95
2023-03-22T20:52:47.523Z,69.15
2023-03-22T20:57:56.258Z,63.80
2023-03-22T21:03:02.065Z,56.45
2023-03-22T21:08:07.804Z,38.08
2023-03-22T21:13:15.872Z,29.95
2023-03-22T21:18:22.085Z,40.05
2023-03-22T21:23:27.303Z,48.60
2023-03-22T21:28:36.126Z,44.20
2023-03-22T21:33:41.546Z,46.15
2023-03-22T21:38:54.552Z,44.97
2023-03-22T21:44:07.118Z,55.13
2023-03-22T21:49:12.335Z,49.85
2023-03-22T21:54:18.773Z,59.22
2023-03-22T21:59:28.234Z,48.25
2023-03-22T22:04:33.568Z,32.97
2023-03-22T22:09:38.856Z,36.30
2023-03-22T22:14:46.932Z,48.15
2023-03-22T22:19:52.045Z,40.00
2023-03-22T22:24:58.152Z,40.85
2023-03-22T22:30:06.474Z,41.25
2023-03-22T22:35:13.336Z,58.22
2023-03-22T22:40:18.465Z,39.72
2023-03-22T22:45:26.278Z,35.83
2023-03-22T22:50:31.535Z,42.08
2023-03-22T22:55:40.849Z,58.25
2023-03-22T23:00:49.014Z,56.40
2023-03-22T23:05:54.215Z,53.88
2023-03-22T23:11:00.331Z,56.83
2023-03-22T23:16:09.301Z,51.15
2023-03-22T23:21:18.455Z,54.45
2023-03-22T23:26:24.429Z,45.13
2023-03-22T23:31:32.773Z,42.15
2023-03-22T23:36:37.952Z,37.85
2023-03-22T23:41:43.243Z,39.65
2023-03-22T23:46:50.940Z,33.88
2023-03-22T23:51:56.237Z,33.25
2023-03-22T23:57:02.099Z,28.38
